createdAt,value
2019-02-12T00:01:00.750Z,2.47
2019-02-12T00:03:34.633Z,2.50
2019-02-12T00:06:09.169Z,2.20
2019-02-12T00:08:42.873Z,1.97
2019-02-12T00:11:17.461Z,2.40
2019-02-12T00:13:51.990Z,2.37
2019-02-12T00:16:25.794Z,2.13
2019-02-12T00:18:59.432Z,2.40
2019-02-12T00:21:33.897Z,2.00
2019-02-12T00:24:07.668Z,3.10
2019-02-12T00:26:42.140Z,2.90
2019-02-12T00:29:15.829Z,3.17
2019-02-12T00:31:49.545Z,3.43
2019-02-12T00:34:23.297Z,3.13
2019-02-12T00:36:56.991Z,3.30
2019-02-12T00:39:31.375Z,2.87
2019-02-12T00:42:05.101Z,2.43
2019-02-12T00:44:38.702Z,2.63
2019-02-12T00:47:12.384Z,2.73
2019-02-12T00:49:46.164Z,2.77
2019-02-12T00:52:20.005Z,2.70
2019-02-12T00:54:53.766Z,3.03
2019-02-12T00:57:27.679Z,2.40
2019-02-12T01:00:01.409Z,2.40
2019-02-12T01:02:35.234Z,2.27
2019-02-12T01:05:08.925Z,2.53
2019-02-12T01:07:42.696Z,2.60
2019-02-12T01:10:16.657Z,3.03
2019-02-12T01:12:50.374Z,2.53
2019-02-12T01:15:24.233Z,2.57
2019-02-12T01:17:57.843Z,2.50
2019-02-12T01:20:31.723Z,2.37
2019-02-12T01:23:05.441Z,2.53
2019-02-12T01:25:39.208Z,2.10
2019-02-12T01:28:13.905Z,2.43
2019-02-12T01:30:47.633Z,2.07
2019-02-12T01:33:21.351Z,2.30
2019-02-12T01:35:55.110Z,2.27
2019-02-12T01:38:28.732Z,2.00
2019-02-12T01:41:02.606Z,2.03
2019-02-12T01:43:36.461Z,2.20
2019-02-12T01:46:11.061Z,2.47
2019-02-12T01:48:44.765Z,2.80
2019-02-12T01:51:18.390Z,2.57
2019-02-12T01:53:52.996Z,2.67
2019-02-12T01:56:26.685Z,2.70
2019-02-12T01:59:00.354Z,3.17
2019-02-12T02:01:35.016Z,2.33
2019-02-12T02:04:08.725Z,2.20
2019-02-12T02:06:42.437Z,2.40
2019-02-12T02:09:16.185Z,2.33
2019-02-12T02:11:50.021Z,2.50
2019-02-12T02:14:23.789Z,2.30
2019-02-12T02:16:57.701Z,2.27
2019-02-12T02:19:31.530Z,2.43
2019-02-12T02:22:05.284Z,2.57
2019-02-12T02:24:39.001Z,2.37
2019-02-12T02:27:13.388Z,2.47
2019-02-12T02:29:47.252Z,2.20
2019-02-12T02:32:21.141Z,2.20
2019-02-12T02:34:55.637Z,2.27
2019-02-12T02:37:30.165Z,2.17
2019-02-12T02:40:03.899Z,1.77
2019-02-12T02:42:37.748Z,2.97
2019-02-12T02:45:11.630Z,2.23
2019-02-12T02:47:45.401Z,2.13
2019-02-12T02:50:19.222Z,2.50
2019-02-12T02:52:53.016Z,2.30
2019-02-12T02:55:26.935Z,2.47
2019-02-12T02:58:00.703Z,1.73
2019-02-12T03:00:35.056Z,2.23
2019-02-12T03:03:08.786Z,2.03
2019-02-12T03:05:42.649Z,2.30
2019-02-12T03:08:16.386Z,2.60
2019-02-12T03:10:52.186Z,2.50
2019-02-12T03:13:23.981Z,2.60
2019-02-12T03:15:57.742Z,2.43
2019-02-12T03:18:32.409Z,2.10
2019-02-12T03:21:06.133Z,1.93
2019-02-12T03:23:39.864Z,2.10
2019-02-12T03:26:13.677Z,2.37
2019-02-12T03:28:48.328Z,2.33
2019-02-12T03:31:22.087Z,2.30
2019-02-12T03:33:56.551Z,2.50
2019-02-12T03:36:30.330Z,2.43
2019-02-12T03:39:04.033Z,2.03
2019-02-12T03:41:38.613Z,2.17
2019-02-12T03:44:13.033Z,2.10
2019-02-12T03:46:47.553Z,2.67
2019-02-12T03:49:21.346Z,2.00
2019-02-12T03:51:54.967Z,2.57
2019-02-12T03:54:29.594Z,2.80
2019-02-12T03:57:03.266Z,2.43
2019-02-12T03:59:37.016Z,2.23
2019-02-12T04:02:11.493Z,2.20
2019-02-12T04:04:45.241Z,2.53
2019-02-12T04:07:18.907Z,2.57
2019-02-12T04:09:52.741Z,2.30
2019-02-12T04:12:26.510Z,2.50
2019-02-12T04:15:01.196Z,2.50
2019-02-12T04:17:34.862Z,2.20
2019-02-12T04:20:08.632Z,2.20
2019-02-12T04:22:42.413Z,2.27
2019-02-12T04:25:16.070Z,2.40
2019-02-12T04:27:49.773Z,3.30
2019-02-12T04:30:23.529Z,2.70
2019-02-12T04:32:57.254Z,3.10
2019-02-12T04:35:31.622Z,2.30
2019-02-12T04:38:05.408Z,2.10
2019-02-12T04:40:39.112Z,2.40
2019-02-12T04:43:12.953Z,2.07
2019-02-12T04:45:47.481Z,2.93
2019-02-12T04:48:21.953Z,2.50
2019-02-12T04:50:55.702Z,2.47
2019-02-12T04:53:29.387Z,2.70
2019-02-12T04:56:03.280Z,3.07
2019-02-12T04:58:37.094Z,2.80
2019-02-12T05:01:10.878Z,3.70
2019-02-12T05:03:44.493Z,3.87
2019-02-12T05:06:18.264Z,3.00
2019-02-12T05:09:02.909Z,3.33
2019-02-12T05:11:36.661Z,3.33
2019-02-12T05:14:10.351Z,2.80
2019-02-12T05:16:44.189Z,3.37
2019-02-12T05:19:18.901Z,3.47
2019-02-12T05:21:52.598Z,3.20
2019-02-12T05:24:26.353Z,3.00
2019-02-12T05:27:00.137Z,3.70
2019-02-12T05:29:33.948Z,3.50
2019-02-12T05:32:07.777Z,3.27
2019-02-12T05:34:41.610Z,3.23
2019-02-12T05:37:15.351Z,3.30
2019-02-12T05:39:49.968Z,3.07
2019-02-12T05:42:24.515Z,2.40
2019-02-12T05:44:58.209Z,2.47
2019-02-12T05:47:32.647Z,2.83
2019-02-12T05:50:10.995Z,2.87
2019-02-12T05:52:53.793Z,2.50
2019-02-12T05:55:19.524Z,2.47
2019-02-12T05:57:53.952Z,2.50
2019-02-12T06:00:28.456Z,3.50
2019-02-12T06:03:02.204Z,3.13
2019-02-12T06:05:36.593Z,3.27
2019-02-12T06:08:11.004Z,3.20
2019-02-12T06:10:44.718Z,3.33
2019-02-12T06:13:18.593Z,3.00
2019-02-12T06:15:53.523Z,2.80
2019-02-12T06:18:27.997Z,3.10
2019-02-12T06:21:01.725Z,3.13
2019-02-12T06:23:35.581Z,3.00
2019-02-12T06:26:10.101Z,3.10
2019-02-12T06:28:43.866Z,3.20
2019-02-12T06:31:17.586Z,3.93
2019-02-12T06:33:51.326Z,3.97
2019-02-12T06:36:25.792Z,3.50
2019-02-12T06:38:59.513Z,3.80
2019-02-12T06:41:33.178Z,4.43
2019-02-12T06:44:06.756Z,3.73
2019-02-12T06:46:40.472Z,4.30
2019-02-12T06:49:14.226Z,4.00
2019-02-12T06:51:48.129Z,3.00
2019-02-12T06:54:21.796Z,3.50
2019-02-12T06:56:55.436Z,3.63
2019-02-12T06:59:29.160Z,3.73
2019-02-12T07:05:14.477Z,5.40
2019-02-12T07:11:02.976Z,5.30
2019-02-12T07:13:42.265Z,3.90
2019-02-12T07:16:16.001Z,3.53
2019-02-12T07:18:54.594Z,3.23
2019-02-12T07:21:29.701Z,3.00
2019-02-12T07:24:22.549Z,3.03
2019-02-12T07:27:17.616Z,3.00
2019-02-12T07:30:03.072Z,2.97
2019-02-12T07:41:53.902Z,4.03
2019-02-12T07:47:50.472Z,5.30
2019-02-12T07:50:31.611Z,3.70
2019-02-12T07:53:05.906Z,5.13
2019-02-12T07:58:48.376Z,4.65
2019-02-12T08:01:39.738Z,3.67
2019-02-12T08:04:17.926Z,3.30
2019-02-12T08:13:25.163Z,6.97
2019-02-12T08:15:59.725Z,4.40
2019-02-12T08:18:49.138Z,5.07
2019-02-12T08:21:33.181Z,3.40
2019-02-12T08:24:16.522Z,2.90
2019-02-12T08:27:00.973Z,3.30
2019-02-12T08:29:40.816Z,3.30
2019-02-12T08:32:58.672Z,2.87
2019-02-12T08:35:59.995Z,3.00
2019-02-12T08:41:51.405Z,3.85
2019-02-12T08:44:39.827Z,2.70
2019-02-12T08:47:18.853Z,2.83
2019-02-12T08:50:06.031Z,2.73
2019-02-12T08:52:55.260Z,3.13
2019-02-12T08:55:39.760Z,3.33
2019-02-12T08:58:22.391Z,2.53
2019-02-12T09:01:01.410Z,2.80
2019-02-12T09:03:43.473Z,3.17
2019-02-12T09:06:45.516Z,2.80
2019-02-12T09:12:38.589Z,3.80
2019-02-12T09:18:40.881Z,3.85
2019-02-12T09:24:30.320Z,3.67
2019-02-12T09:30:14.136Z,3.80
2019-02-12T09:39:08.688Z,3.75
2019-02-12T09:44:51.549Z,3.17
2019-02-12T09:50:34.677Z,2.83
2019-02-12T09:53:15.362Z,2.50
2019-02-12T09:59:16.228Z,2.85
2019-02-12T10:02:03.263Z,2.53
2019-02-12T10:08:00.037Z,3.05
2019-02-12T10:10:42.927Z,2.43
2019-02-12T10:13:33.919Z,2.23
2019-02-12T10:22:18.904Z,3.28
2019-02-12T10:25:03.641Z,2.73
2019-02-12T10:27:50.748Z,2.27
2019-02-12T10:33:23.875Z,3.05
2019-02-12T10:35:57.544Z,2.07
2019-02-12T10:38:32.161Z,2.57
2019-02-12T10:41:05.892Z,1.77
2019-02-12T10:43:39.644Z,2.07
2019-02-12T10:46:13.425Z,2.33
2019-02-12T10:48:47.844Z,1.83
2019-02-12T10:51:21.639Z,2.00
2019-02-12T10:53:55.377Z,2.20
2019-02-12T10:56:29.076Z,2.20
2019-02-12T10:59:02.856Z,1.83
2019-02-12T11:01:36.593Z,2.07
2019-02-12T11:04:11.065Z,1.73
2019-02-12T11:06:44.876Z,1.50
2019-02-12T11:09:18.464Z,1.40
2019-02-12T11:11:52.276Z,1.70
2019-02-12T11:14:25.868Z,2.20
2019-02-12T11:16:59.584Z,1.63
2019-02-12T11:19:33.388Z,1.80
2019-02-12T11:22:06.908Z,1.90
2019-02-12T11:24:40.572Z,1.90
2019-02-12T11:27:14.140Z,2.10
2019-02-12T11:29:47.911Z,1.97
2019-02-12T11:32:21.596Z,2.30
2019-02-12T11:34:55.277Z,2.07
2019-02-12T11:37:28.972Z,2.20
2019-02-12T11:40:03.404Z,2.17
2019-02-12T11:42:37.082Z,1.70
2019-02-12T11:45:12.540Z,1.77
2019-02-12T11:47:47.097Z,1.80
2019-02-12T11:50:20.838Z,1.77
2019-02-12T11:52:55.349Z,1.80
2019-02-12T11:55:29.070Z,1.60
2019-02-12T11:58:03.556Z,1.90
2019-02-12T12:00:37.387Z,2.10
2019-02-12T12:03:12.000Z,1.70
2019-02-12T12:05:45.729Z,1.53
2019-02-12T12:08:20.224Z,1.90
2019-02-12T12:10:53.948Z,2.10
2019-02-12T12:13:28.293Z,1.70
2019-02-12T12:16:02.062Z,2.10
2019-02-12T12:18:35.774Z,1.60
2019-02-12T12:21:09.524Z,1.60
2019-02-12T12:23:44.045Z,1.50
2019-02-12T12:26:17.768Z,1.47
2019-02-12T12:28:51.358Z,1.80
2019-02-12T12:31:25.096Z,1.33
2019-02-12T12:33:58.688Z,1.97
2019-02-12T12:36:33.172Z,1.23
2019-02-12T12:39:06.916Z,1.60
2019-02-12T12:41:42.796Z,1.53
2019-02-12T12:44:15.152Z,1.67
2019-02-12T12:46:48.732Z,1.43
2019-02-12T12:49:22.278Z,1.63
2019-02-12T12:51:56.633Z,1.40
2019-02-12T12:54:31.048Z,1.60
2019-02-12T12:57:04.791Z,1.50
2019-02-12T12:59:38.562Z,1.20
2019-02-12T13:02:12.199Z,1.53
2019-02-12T13:04:45.964Z,1.73
2019-02-12T13:07:19.704Z,1.37
2019-02-12T13:09:53.364Z,1.37
2019-02-12T13:12:27.060Z,1.30
2019-02-12T13:15:00.695Z,1.23
2019-02-12T13:17:34.313Z,1.77
2019-02-12T13:20:10.732Z,1.23
2019-02-12T13:22:44.445Z,1.60
2019-02-12T13:25:18.152Z,1.30
2019-02-12T13:27:51.896Z,1.80
2019-02-12T13:30:25.704Z,1.20
2019-02-12T13:32:59.400Z,1.80
2019-02-12T13:35:33.108Z,1.00
2019-02-12T13:38:07.606Z,1.43
2019-02-12T13:40:41.389Z,1.70
2019-02-12T13:43:15.933Z,1.50
2019-02-12T13:45:49.765Z,1.37
2019-02-12T13:48:23.613Z,1.40
2019-02-12T13:50:57.975Z,1.33
2019-02-12T13:53:32.501Z,1.57
2019-02-12T13:56:06.231Z,1.20
2019-02-12T13:58:39.825Z,1.30
2019-02-12T14:01:13.628Z,1.40
2019-02-12T14:03:58.881Z,1.60
2019-02-12T14:06:32.587Z,1.53
2019-02-12T14:09:06.296Z,1.27
2019-02-12T14:11:39.973Z,1.03
2019-02-12T14:14:13.572Z,1.00
2019-02-12T14:16:47.324Z,1.43
2019-02-12T14:19:21.025Z,1.23
2019-02-12T14:21:54.668Z,1.33
2019-02-12T14:24:28.234Z,1.57
2019-02-12T14:27:01.806Z,1.30
2019-02-12T14:29:35.472Z,1.47
2019-02-12T14:32:09.190Z,1.70
2019-02-12T14:34:42.949Z,1.20
2019-02-12T14:37:17.589Z,1.27
2019-02-12T14:39:51.281Z,1.23
2019-02-12T14:42:25.032Z,1.20
2019-02-12T14:44:58.969Z,1.40
2019-02-12T14:47:32.666Z,1.20
2019-02-12T14:50:07.185Z,0.97
2019-02-12T14:52:40.923Z,1.10
2019-02-12T14:55:14.854Z,1.10
2019-02-12T14:57:48.746Z,1.40
2019-02-12T15:00:22.619Z,1.20
2019-02-12T15:02:56.219Z,1.10
2019-02-12T15:05:29.817Z,1.07
2019-02-12T15:08:04.344Z,1.30
2019-02-12T15:10:38.085Z,0.97
2019-02-12T15:13:12.448Z,1.20
2019-02-12T15:15:46.221Z,1.00
2019-02-12T15:18:20.495Z,1.10
2019-02-12T15:20:54.164Z,1.23
2019-02-12T15:23:27.792Z,1.00
2019-02-12T15:26:01.400Z,0.90
2019-02-12T15:28:35.116Z,0.90
2019-02-12T15:31:09.616Z,1.20
2019-02-12T15:33:44.047Z,0.97
2019-02-12T15:36:18.572Z,1.20
2019-02-12T15:38:53.076Z,1.13
2019-02-12T15:41:26.698Z,1.03
2019-02-12T15:44:01.138Z,0.80
2019-02-12T15:46:34.832Z,1.07
2019-02-12T15:49:08.581Z,1.07
2019-02-12T15:51:42.239Z,0.90
2019-02-12T15:54:20.002Z,1.20
2019-02-12T15:56:53.852Z,1.20
2019-02-12T15:59:29.532Z,1.13
2019-02-12T16:02:02.141Z,1.27
2019-02-12T16:04:35.980Z,1.20
2019-02-12T16:07:09.843Z,1.03
2019-02-12T16:09:43.652Z,1.33
2019-02-12T16:12:17.504Z,1.30
2019-02-12T16:14:53.001Z,1.37
2019-02-12T16:17:25.162Z,1.40
2019-02-12T16:19:59.074Z,1.17
2019-02-12T16:22:33.554Z,1.20
2019-02-12T16:25:08.238Z,1.20
2019-02-12T16:27:42.846Z,0.77
2019-02-12T16:30:17.372Z,1.13
2019-02-12T16:32:51.233Z,1.23
2019-02-12T16:35:24.961Z,0.90
2019-02-12T16:37:58.717Z,1.60
2019-02-12T16:40:32.427Z,1.03
2019-02-12T16:43:06.192Z,1.13
2019-02-12T16:45:43.657Z,1.20
2019-02-12T16:48:17.327Z,1.30
2019-02-12T16:50:52.017Z,1.70
2019-02-12T16:53:25.750Z,1.87
2019-02-12T16:56:07.940Z,1.93
2019-02-12T16:58:33.360Z,2.10
2019-02-12T17:01:07.140Z,2.03
2019-02-12T17:03:41.844Z,1.80
2019-02-12T17:06:16.372Z,1.80
2019-02-12T17:08:50.095Z,2.00
2019-02-12T17:11:23.880Z,2.30
2019-02-12T17:13:59.322Z,2.77
2019-02-12T17:16:31.524Z,2.20
2019-02-12T17:19:05.917Z,3.40
2019-02-12T17:21:39.652Z,3.10
2019-02-12T17:24:13.445Z,3.03
2019-02-12T17:26:47.861Z,3.00
2019-02-12T17:29:21.563Z,3.30
2019-02-12T17:31:55.306Z,3.73
2019-02-12T17:34:46.924Z,4.13
2019-02-12T17:37:20.541Z,3.43
2019-02-12T17:39:55.006Z,3.60
2019-02-12T17:42:28.748Z,4.10
2019-02-12T17:45:02.461Z,3.63
2019-02-12T17:47:36.292Z,4.10
2019-02-12T17:50:10.901Z,4.10
2019-02-12T17:52:44.471Z,4.67
2019-02-12T17:55:18.268Z,5.77
2019-02-12T17:57:51.983Z,5.20
2019-02-12T18:00:26.490Z,5.03
2019-02-12T18:03:00.328Z,4.77
2019-02-12T18:05:34.006Z,5.50
2019-02-12T18:08:07.672Z,4.27
2019-02-12T18:10:41.443Z,3.90
2019-02-12T18:13:15.230Z,3.20
2019-02-12T18:15:48.957Z,3.50
2019-02-12T18:18:22.726Z,3.57
2019-02-12T18:20:56.409Z,4.67
2019-02-12T18:23:30.172Z,4.07
2019-02-12T18:26:03.927Z,4.37
2019-02-12T18:28:37.549Z,4.47
2019-02-12T18:31:11.973Z,4.83
2019-02-12T18:33:46.479Z,4.40
2019-02-12T18:36:21.013Z,5.67
2019-02-12T18:38:54.762Z,4.17
2019-02-12T18:41:28.513Z,4.80
2019-02-12T18:44:02.348Z,5.63
2019-02-12T18:46:36.085Z,5.80
2019-02-12T18:49:09.840Z,5.30
2019-02-12T18:51:43.453Z,5.57
2019-02-12T18:54:17.253Z,5.70
2019-02-12T18:56:51.151Z,5.30
2019-02-12T18:59:24.888Z,5.80
2019-02-12T19:01:58.664Z,4.97
2019-02-12T19:04:32.400Z,4.90
2019-02-12T19:07:06.186Z,5.73
2019-02-12T19:09:40.069Z,6.63
2019-02-12T19:12:13.713Z,5.93
2019-02-12T19:14:47.499Z,5.80
2019-02-12T19:17:21.989Z,4.87
2019-02-12T19:19:55.741Z,5.73
2019-02-12T19:22:29.528Z,5.27
2019-02-12T19:25:03.329Z,4.90
2019-02-12T19:27:37.929Z,5.67
2019-02-12T19:30:13.193Z,6.30
2019-02-12T19:32:47.008Z,6.37
2019-02-12T19:35:21.522Z,4.97
2019-02-12T19:37:55.304Z,5.53
2019-02-12T19:40:28.994Z,4.90
2019-02-12T19:43:02.792Z,5.47
2019-02-12T19:45:37.264Z,4.37
2019-02-12T19:48:10.973Z,4.40
2019-02-12T19:50:44.713Z,4.53
2019-02-12T19:53:19.267Z,4.37
2019-02-12T19:55:53.797Z,4.03
2019-02-12T19:58:27.497Z,4.00
2019-02-12T20:01:01.254Z,4.67
2019-02-12T20:03:35.169Z,4.93
2019-02-12T20:06:08.843Z,4.27
2019-02-12T20:08:42.738Z,4.20
2019-02-12T20:11:16.341Z,3.53
2019-02-12T20:13:50.093Z,3.77
2019-02-12T20:16:23.812Z,4.20
2019-02-12T20:18:57.715Z,4.17
2019-02-12T20:21:31.453Z,4.17
2019-02-12T20:24:05.993Z,5.17
2019-02-12T20:26:40.497Z,4.83
2019-02-12T20:29:14.231Z,4.93
2019-02-12T20:31:47.912Z,4.93
2019-02-12T20:34:21.521Z,5.60
2019-02-12T20:36:55.290Z,4.47
2019-02-12T20:39:29.029Z,4.50
2019-02-12T20:42:03.754Z,4.90
2019-02-12T20:44:38.281Z,4.60
2019-02-12T20:47:12.076Z,4.80
2019-02-12T20:49:45.685Z,4.40
2019-02-12T20:52:20.200Z,3.97
2019-02-12T20:54:54.717Z,4.30
2019-02-12T20:57:28.449Z,3.80
2019-02-12T21:00:03.045Z,4.27
2019-02-12T21:02:36.784Z,3.77
2019-02-12T21:05:10.489Z,3.83
2019-02-12T21:07:44.621Z,3.43
2019-02-12T21:10:19.737Z,3.47
2019-02-12T21:12:53.393Z,4.13
2019-02-12T21:15:28.084Z,4.23
2019-02-12T21:18:01.821Z,3.40
2019-02-12T21:20:35.665Z,3.33
2019-02-12T21:23:09.289Z,3.53
2019-02-12T21:25:42.865Z,3.87
2019-02-12T21:28:17.400Z,3.73
2019-02-12T21:30:51.150Z,4.00
2019-02-12T21:33:24.948Z,3.50
2019-02-12T21:35:59.507Z,3.87
2019-02-12T21:38:33.252Z,3.50
2019-02-12T21:41:07.648Z,3.73
2019-02-12T21:43:41.345Z,3.53
2019-02-12T21:46:15.100Z,4.10
2019-02-12T21:48:49.598Z,4.00
2019-02-12T21:51:23.401Z,3.47
2019-02-12T21:53:57.213Z,4.07
2019-02-12T21:56:31.116Z,3.47
2019-02-12T21:59:05.021Z,4.00
2019-02-12T22:01:39.641Z,3.93
2019-02-12T22:04:14.162Z,3.40
2019-02-12T22:06:47.872Z,3.57
2019-02-12T22:09:21.484Z,3.67
2019-02-12T22:11:55.281Z,3.70
2019-02-12T22:14:29.275Z,3.50
2019-02-12T22:17:02.841Z,3.73
2019-02-12T22:19:36.598Z,3.80
2019-02-12T22:22:11.109Z,3.83
2019-02-12T22:24:44.921Z,4.17
2019-02-12T22:27:18.757Z,4.30
2019-02-12T22:29:52.601Z,4.50
2019-02-12T22:32:26.429Z,4.70
2019-02-12T22:35:00.220Z,3.43
2019-02-12T22:37:33.965Z,4.10
2019-02-12T22:40:09.284Z,4.47
2019-02-12T22:42:42.905Z,4.27
2019-02-12T22:45:24.909Z,4.10
2019-02-12T22:47:58.708Z,4.87
2019-02-12T22:50:32.509Z,4.50
2019-02-12T22:53:06.445Z,3.90
2019-02-12T22:55:40.306Z,4.43
2019-02-12T22:58:14.043Z,4.90
2019-02-12T23:00:56.088Z,4.23
2019-02-12T23:03:29.849Z,4.27
2019-02-12T23:06:03.767Z,4.20
2019-02-12T23:08:37.462Z,4.50
2019-02-12T23:11:11.975Z,4.50
2019-02-12T23:13:45.702Z,4.13
2019-02-12T23:16:19.464Z,4.27
2019-02-12T23:18:53.996Z,4.70
2019-02-12T23:21:27.718Z,4.90
2019-02-12T23:24:01.562Z,4.57
2019-02-12T23:26:35.301Z,5.20
2019-02-12T23:29:09.032Z,4.20
2019-02-12T23:31:42.938Z,5.47
2019-02-12T23:34:16.813Z,4.37
2019-02-12T23:36:50.645Z,5.17
2019-02-12T23:39:24.365Z,4.40
2019-02-12T23:41:58.860Z,4.83
2019-02-12T23:44:32.628Z,5.17
2019-02-12T23:47:06.528Z,4.60
2019-02-12T23:49:40.990Z,4.97
2019-02-12T23:52:15.515Z,4.73
2019-02-12T23:54:50.028Z,4.90
2019-02-12T23:57:23.924Z,4.93
2019-02-12T23:59:58.573Z,5.53
